Impacts METAR Board
IDs:

KATL - Atlanta/Hartsfield-J, GA, US

Updated at: 0300 UTC 06 Dec 2019
Potential Impact None Slight Moderate High
Time 05/15Z 05/16Z 05/17Z 05/18Z 05/19Z 05/20Z 05/21Z 05/22Z 05/23Z 06/00Z 06/01Z 06/02Z 06/03Z
Temp50 54 59 62 63 64 64 62 59 54 53 51 51
Dewpt32 31 29 28 24 23 22 23 22 27 27 28 29
Altim30.15 30.17 30.16 30.14 30.12 30.11 30.12 30.12 30.13 30.14 30.15 30.15 30.17
VIS10 10 10 10 10 10 10 10 10 10 10 10 10
CIG-- -- -- -- -- -- -- -- -- -- -- 180 170
CoverFEWFEWFEWFEWFEWFEWFEWFEWFEWFEWSCTBKNBKN
FltCatVFRVFRVFRVFRVFRVFRVFRVFRVFRVFRVFRVFRVFR
WX--------------------------
WDir330320310350360360360320320001600
WSpd8 5 6 7 7 7 4 4 4 0 0 4 0
WGst-- -- -- -- -- -- -- -- -- -- -- -- --
Raw hourly METARs
KATL 051452Z 33008KT 10SM FEW150 10/00 A3015 RMK AO2 SLP213 T01000000 51029
KATL 051552Z 32005KT 10SM FEW150 FEW250 12/M01 A3017 RMK AO2 SLP216 T01221006
KATL 051652Z 31006KT 10SM FEW150 FEW250 15/M02 A3016 RMK AO2 SLP215 T01501017
KATL 051752Z 35007KT 10SM FEW150 FEW250 17/M02 A3014 RMK AO2 SLP206 T01671022 10167 20044 58004
KATL 051852Z 36007KT 10SM FEW250 17/M04 A3012 RMK AO2 SLP200 T01721044
KATL 051952Z 36007KT 10SM FEW250 18/M05 A3011 RMK AO2 SLP197 T01781050
KATL 052052Z 36004KT 10SM FEW250 18/M06 A3012 RMK AO2 SLP198 T01781056 55008
KATL 052152Z 32004KT 10SM FEW150 FEW250 17/M05 A3012 RMK AO2 SLP201 T01671050
KATL 052252Z 32004KT 10SM FEW150 FEW250 15/M06 A3013 RMK AO2 SLP205 T01501056
KATL 052352Z 00000KT 10SM FEW150 FEW250 12/M03 A3014 RMK AO2 SLP211 T01221028 10183 20122 53009
KATL 060052Z 00000KT 10SM SCT200 12/M03 A3015 RMK AO2 SLP213 T01171028
KATL 060152Z 16004KT 10SM BKN180 11/M02 A3015 RMK AO2 SLP212 T01061022
KATL 060252Z 00000KT 10SM BKN170 11/M02 A3017 RMK AO2 SLP218 T01061017 53008 $



Page loaded:  03:41 UTC  |   07:41 PM Pacific  |   08:41 PM Mountain  |   09:41 PM Central  |   10:41 PM Eastern

 

ADVISORIES

FORECASTS

FORECASTS

OBSERVATIONS

USER TOOLS

ABOUT US